Bernard A — TCWN3 — position and weather

sailwx.info

Track history (hours):
 
Tides and Currents Weather Stations Pressure Air Temp Water Temp Dewpoint Dewpoint Depression Visibility Wind Speed Wind Dir Waves Ship Positions

Bernard A

Last reported at 2014-Nov-17 06:13 UTC. Time now 2014-Nov-22 00:25 UTC.
Position N 41°15' E 029°08'.

Length 184 m; draft 7.1 m.

Type: Cargo ship. MMSI: 271040008.

Date/timePositionNaut miles runAvg speedWind from/ knotsBaromVisibWave heightAir tempDewpointWater temp
2014-Nov-17 06:13N 41°15' E 029°08'8 0.9
2014-Nov-16 21:33N 41°22' E 029°12'1413.9
2014-Nov-16 20:33N 41°25' E 029°30'38013.5
2014-Nov-15 16:25N 42°12' E 037°56'7114.3
2014-Nov-15 11:28N 42°12' E 039°31'1314.4
2014-Nov-15 10:33N 42°12' E 039°49'  
2014-Nov-10 12:33N 42°12' E 038°35'1313.0
2014-Nov-10 11:33N 42°12' E 038°18'1212.2
2014-Nov-10 10:33N 42°12' E 038°01'1511.9
2014-Nov-10 09:15N 42°12' E 037°40'1012.4
2014-Nov-10 08:29N 42°12' E 037°27'1313.7
2014-Nov-10 07:33N 42°12' E 037°11'1413.0
2014-Nov-10 06:31N 42°12' E 036°52'1212.7
2014-Nov-10 05:33N 42°12' E 036°36'1312.9
2014-Nov-10 04:33N 42°11' E 036°18'1312.7
2014-Nov-10 03:33N 42°11' E 036°01'1412.8
2014-Nov-10 02:28N 42°12' E 035°43'1213.0
2014-Nov-10 01:33N 42°12' E 035°26'1313.0
2014-Nov-10 00:34N 42°12' E 035°09'1413.5
2014-Nov-09 23:33N 42°12' E 034°51'1313.3
2014-Nov-09 22:33N 42°11' E 034°33'1413.4
2014-Nov-09 21:29N 42°10' E 034°13'19714.0
2014-Nov-09 07:25N 41°25' E 029°56'1314.3
2014-Nov-09 06:28N 41°21' E 029°39'1314.1
2014-Nov-09 05:33N 41°18' E 029°23'1711.8
2014-Nov-09 04:06N 41°09' E 029°04'810.7
2014-Nov-09 03:23N 41°01' E 028°60'8 9.5
2014-Nov-09 02:32N 40°54' E 028°56'8 7.9
2014-Nov-09 01:33N 40°48' E 028°49'1 0.6
2014-Nov-09 00:32N 40°49' E 028°50'1 0.6
2014-Nov-08 23:33N 40°49' E 028°51'1 0.7
2014-Nov-08 22:33N 40°49' E 028°51'1 0.9
2014-Nov-08 21:33N 40°48' E 028°53'1 0.9
2014-Nov-08 20:33N 40°48' E 028°54'1 0.6
2014-Nov-08 19:33N 40°49' E 028°54'4 4.4
2014-Nov-08 18:32N 40°46' E 028°50'0 0.4
2014-Nov-08 17:33N 40°46' E 028°50'1 1.1
2014-Nov-08 16:33N 40°46' E 028°49'1110.6
2014-Nov-08 15:33N 40°55' E 028°42'3 1.0
2014-Nov-08 13:03N 40°58' E 028°41'0 0.0
2014-Nov-08 04:15N 40°58' E 028°41'0 0.0
2014-Nov-08 03:15N 40°58' E 028°41'0 0.0
2014-Nov-08 02:33N 40°58' E 028°41'0 0.0
2014-Nov-07 19:27N 40°58' E 028°41'0 0.0
2014-Nov-07 16:27N 40°58' E 028°41'3 2.8
2014-Nov-07 15:32N 40°56' E 028°38'0 0.0
2014-Nov-07 13:06N 40°56' E 028°38'0 0.0
2014-Nov-07 11:12N 40°56' E 028°38'0 0.0
2014-Nov-07 10:18N 40°56' E 028°38'0 0.0
2014-Nov-07 09:24N 40°56' E 028°38'  
Track history (hours):
 
Tides and Currents Weather Stations Pressure Air Temp Water Temp Dewpoint Dewpoint Depression Visibility Wind Speed Wind Dir Waves Ship Positions

Bernard A

Last reported at 2014-Nov-17 06:13 UTC. Time now 2014-Nov-22 00:25 UTC.
Position N 41°15' E 029°08'.

Length 184 m; draft 7.1 m.

Type: Cargo ship. MMSI: 271040008.

Date/timePositionNaut miles runAvg speedWind from/ knotsBaromVisibWave heightAir tempDewpointWater temp
2014-Nov-17 06:13N 41°15' E 029°08'8 0.9
2014-Nov-16 21:33N 41°22' E 029°12'1413.9
2014-Nov-16 20:33N 41°25' E 029°30'38013.5
2014-Nov-15 16:25N 42°12' E 037°56'7114.3
2014-Nov-15 11:28N 42°12' E 039°31'1314.4
2014-Nov-15 10:33N 42°12' E 039°49'  
2014-Nov-10 12:33N 42°12' E 038°35'1313.0
2014-Nov-10 11:33N 42°12' E 038°18'1212.2
2014-Nov-10 10:33N 42°12' E 038°01'1511.9
2014-Nov-10 09:15N 42°12' E 037°40'1012.4
2014-Nov-10 08:29N 42°12' E 037°27'1313.7
2014-Nov-10 07:33N 42°12' E 037°11'1413.0
2014-Nov-10 06:31N 42°12' E 036°52'1212.7
2014-Nov-10 05:33N 42°12' E 036°36'1312.9
2014-Nov-10 04:33N 42°11' E 036°18'1312.7
2014-Nov-10 03:33N 42°11' E 036°01'1412.8
2014-Nov-10 02:28N 42°12' E 035°43'1213.0
2014-Nov-10 01:33N 42°12' E 035°26'1313.0
2014-Nov-10 00:34N 42°12' E 035°09'1413.5
2014-Nov-09 23:33N 42°12' E 034°51'1313.3
2014-Nov-09 22:33N 42°11' E 034°33'1413.4
2014-Nov-09 21:29N 42°10' E 034°13'19714.0
2014-Nov-09 07:25N 41°25' E 029°56'1314.3
2014-Nov-09 06:28N 41°21' E 029°39'1314.1
2014-Nov-09 05:33N 41°18' E 029°23'1711.8
2014-Nov-09 04:06N 41°09' E 029°04'810.7
2014-Nov-09 03:23N 41°01' E 028°60'8 9.5
2014-Nov-09 02:32N 40°54' E 028°56'8 7.9
2014-Nov-09 01:33N 40°48' E 028°49'1 0.6
2014-Nov-09 00:32N 40°49' E 028°50'1 0.6
2014-Nov-08 23:33N 40°49' E 028°51'1 0.7
2014-Nov-08 22:33N 40°49' E 028°51'1 0.9
2014-Nov-08 21:33N 40°48' E 028°53'1 0.9
2014-Nov-08 20:33N 40°48' E 028°54'1 0.6
2014-Nov-08 19:33N 40°49' E 028°54'4 4.4
2014-Nov-08 18:32N 40°46' E 028°50'0 0.4
2014-Nov-08 17:33N 40°46' E 028°50'1 1.1
2014-Nov-08 16:33N 40°46' E 028°49'1110.6
2014-Nov-08 15:33N 40°55' E 028°42'3 1.0
2014-Nov-08 13:03N 40°58' E 028°41'0 0.0
2014-Nov-08 04:15N 40°58' E 028°41'0 0.0
2014-Nov-08 03:15N 40°58' E 028°41'0 0.0
2014-Nov-08 02:33N 40°58' E 028°41'0 0.0
2014-Nov-07 19:27N 40°58' E 028°41'0 0.0
2014-Nov-07 16:27N 40°58' E 028°41'3 2.8
2014-Nov-07 15:32N 40°56' E 028°38'0 0.0
2014-Nov-07 13:06N 40°56' E 028°38'0 0.0
2014-Nov-07 11:12N 40°56' E 028°38'0 0.0
2014-Nov-07 10:18N 40°56' E 028°38'0 0.0
2014-Nov-07 09:24N 40°56' E 028°38'  

Dump ship's entire track history